Time;durP1;ratioP1;P1;durP2;ratioP2;P2;SDS_P1;SDS_P2;PMS_P1;PMS_P2;Temp;Humidity;BMP_temperature;BMP_pressure;BME280_temperature;BME280_humidity;BME280_pressure;Samples;Min_cycle;Max_cycle;Signal;HPM_P1;HPM_P2
2022/11/19 07:09:04;;;;;;;3.58;2.72;;;;;;;1.38;100.00;99280.83;1672754;83;21058;-84
2022/11/19 07:11:49;;;;;;;3.62;1.72;;;;;;;1.40;100.00;99288.13;1700132;82;21085;-84
2022/11/19 07:14:36;;;;;;;3.90;2.00;;;;;;;1.44;100.00;99289.82;1730427;82;21014;-83
2022/11/19 07:17:20;;;;;;;2.27;1.47;;;;;;;1.47;100.00;99290.66;1726943;81;20994;-84
2022/11/19 07:20:07;;;;;;;3.10;1.95;;;;;;;1.50;100.00;99303.62;1748345;80;20918;-83
2022/11/19 07:22:52;;;;;;;3.35;1.77;;;;;;;1.53;100.00;99304.46;1714458;82;21045;-84
2022/11/19 07:25:38;;;;;;;3.27;2.08;;;;;;;1.58;100.00;99311.27;1710161;82;21023;-84
2022/11/19 07:28:23;;;;;;;7.00;2.77;;;;;;;1.58;100.00;99309.92;1718492;81;21025;-84
2022/11/19 07:31:08;;;;;;;8.45;3.75;;;;;;;1.60;100.00;99301.06;1727258;82;21133;-84
2022/11/19 07:33:52;;;;;;;15.10;6.58;;;;;;;1.62;100.00;99305.67;1719248;81;21055;-84
2022/11/19 07:44:11;;;;;;;4.87;2.30;;;;;;;1.66;100.00;99302.78;1688863;82;21063;-84
2022/11/19 07:46:57;;;;;;;8.50;3.92;;;;;;;1.70;100.00;99304.43;1655477;84;21047;-84
2022/11/19 07:49:41;;;;;;;9.95;4.03;;;;;;;1.73;100.00;99310.66;1722151;82;21487;-84
2022/11/19 07:52:26;;;;;;;8.83;3.90;;;;;;;1.80;100.00;99318.56;1714602;82;21074;-84
2022/11/19 07:55:10;;;;;;;6.80;3.67;;;;;;;1.85;100.00;99319.98;1749655;81;20977;-84
2022/11/19 07:57:54;;;;;;;4.65;2.25;;;;;;;1.87;100.00;99335.36;1749599;81;20982;-84
2022/11/19 08:00:40;;;;;;;5.05;2.95;;;;;;;1.93;100.00;99346.51;1673580;83;20994;-84
2022/11/19 08:03:25;;;;;;;5.12;2.95;;;;;;;1.97;100.00;99347.62;1651255;85;21018;-84
2022/11/19 08:06:11;;;;;;;5.12;3.22;;;;;;;2.00;100.00;99356.54;1728123;81;21057;-84
2022/11/19 08:08:56;;;;;;;6.15;3.50;;;;;;;2.03;100.00;99368.19;1702026;83;21035;-84
2022/11/19 08:11:43;;;;;;;6.92;3.52;;;;;;;2.15;100.00;99358.61;1724316;81;21002;-84
2022/11/19 08:14:27;;;;;;;5.85;3.65;;;;;;;2.23;100.00;99366.82;1685563;83;21511;-84
2022/11/19 08:20:16;;;;;;;5.15;3.50;;;;;;;2.27;100.00;99380.06;1671356;83;21083;-84
2022/11/19 08:23:01;;;;;;;5.92;3.62;;;;;;;2.31;100.00;99385.24;1666374;84;21081;-84
2022/11/19 08:25:45;;;;;;;6.70;3.58;;;;;;;2.33;100.00;99395.25;1718922;80;21003;-84
2022/11/19 08:28:30;;;;;;;6.00;3.67;;;;;;;2.36;100.00;99410.38;1722821;80;20986;-83
2022/11/19 08:31:16;;;;;;;4.08;2.70;;;;;;;2.42;100.00;99405.85;1726382;80;21652;-84
2022/11/19 08:34:02;;;;;;;4.95;3.17;;;;;;;2.47;100.00;99418.59;1711473;82;21063;-84
2022/11/19 08:36:48;;;;;;;4.92;2.62;;;;;;;2.47;100.00;99415.89;1724696;81;21017;-83
2022/11/19 08:39:33;;;;;;;7.58;3.85;;;;;;;2.53;100.00;99417.06;1726677;81;21077;-84
2022/11/19 08:45:21;;;;;;;7.25;3.30;;;;;;;2.56;100.00;99430.03;1741251;81;21096;-84
2022/11/19 08:48:09;;;;;;;5.90;3.17;;;;;;;2.60;100.00;99430.36;1721274;81;20982;-83
2022/11/19 08:50:53;;;;;;;3.50;1.80;;;;;;;2.57;100.00;99441.12;1736101;82;21066;-84
2022/11/19 08:53:37;;;;;;;6.05;3.00;;;;;;;2.54;100.00;99446.99;1699317;84;21015;-84
2022/11/19 08:56:22;;;;;;;5.40;2.40;;;;;;;2.50;100.00;99449.93;1699875;82;21418;-84
2022/11/19 08:59:07;;;;;;;6.70;3.62;;;;;;;2.39;100.00;99468.37;1699705;83;21015;-84
2022/11/19 09:01:52;;;;;;;3.42;1.80;;;;;;;2.37;100.00;99471.84;1717928;82;21005;-84
2022/11/19 09:04:37;;;;;;;3.17;2.15;;;;;;;2.33;100.00;99472.09;1734582;81;21004;-83
2022/11/19 09:07:22;;;;;;;13.35;5.40;;;;;;;2.28;100.00;99482.27;1721139;81;21068;-84
2022/11/19 09:10:08;;;;;;;8.18;2.50;;;;;;;2.26;100.00;99486.27;1691924;83;20993;-84
2022/11/19 09:12:54;;;;;;;8.63;3.17;;;;;;;2.22;100.00;99491.86;1692695;82;21045;-83
2022/11/19 09:15:38;;;;;;;16.82;6.55;;;;;;;2.13;100.00;99503.08;1716963;82;21088;-83
2022/11/19 09:18:24;;;;;;;12.55;5.92;;;;;;;2.07;100.00;99516.17;1744258;81;20987;-83
2022/11/19 09:21:10;;;;;;;21.25;8.75;;;;;;;2.01;100.00;99525.79;1689629;83;21022;-84
2022/11/19 09:23:54;;;;;;;18.92;10.35;;;;;;;1.92;100.00;99522.14;1732487;80;21038;-84
2022/11/19 09:26:39;;;;;;;14.80;8.10;;;;;;;1.87;100.00;99539.57;1730965;80;21111;-83
2022/11/19 09:29:24;;;;;;;3.10;2.60;;;;;;;1.83;100.00;99551.91;1740553;81;21046;-84
2022/11/19 09:32:09;;;;;;;3.87;2.60;;;;;;;1.81;100.00;99554.56;1719569;81;21005;-84
2022/11/19 09:34:54;;;;;;;3.30;2.42;;;;;;;1.78;100.00;99561.77;1722771;81;21014;-84
2022/11/19 09:37:39;;;;;;;3.77;2.33;;;;;;;1.75;100.00;99572.50;1743222;81;21001;-83
2022/11/19 09:40:25;;;;;;;6.62;3.70;;;;;;;1.74;100.00;99566.03;1734104;80;21022;-83
2022/11/19 09:43:22;;;;;;;5.30;3.20;;;;;;;1.73;100.00;99575.95;1714868;81;21511;-84
2022/11/19 09:46:18;;;;;;;4.78;3.02;;;;;;;1.77;100.00;99581.69;1721969;81;21635;-83
2022/11/19 09:49:08;;;;;;;9.75;6.30;;;;;;;1.78;100.00;99592.23;1709602;80;21037;-84
2022/11/19 09:51:58;;;;;;;8.68;4.15;;;;;;;1.79;100.00;99597.09;1744358;80;21038;-83
2022/11/19 09:54:53;;;;;;;9.25;5.45;;;;;;;1.82;100.00;99603.33;1742370;80;21017;-83
2022/11/19 09:57:51;;;;;;;8.75;5.42;;;;;;;1.86;100.00;99604.49;1724992;80;21041;-83
2022/11/19 10:00:36;;;;;;;6.83;3.98;;;;;;;1.91;100.00;99601.88;1752640;80;21034;-83
2022/11/19 10:03:22;;;;;;;7.65;4.60;;;;;;;1.98;100.00;99622.76;1737575;80;21578;-83
2022/11/19 10:06:15;;;;;;;6.90;3.45;;;;;;;2.06;100.00;99620.19;1693372;82;21061;-83
2022/11/19 10:09:43;;;;;;;8.78;4.15;;;;;;;2.12;100.00;99632.14;1745065;80;20987;-82
2022/11/19 10:13:10;;;;;;;6.47;3.55;;;;;;;2.18;100.00;99636.27;1738736;80;21001;-83
2022/11/19 10:15:56;;;;;;;4.72;2.40;;;;;;;2.23;100.00;99657.41;1724344;81;20985;-83
2022/11/19 10:19:00;;;;;;;5.22;2.67;;;;;;;2.22;100.00;99668.42;1703636;82;21041;-82
2022/11/19 10:22:22;;;;;;;3.73;2.70;;;;;;;2.22;100.00;99680.55;1706938;82;21054;-83
2022/11/19 10:25:22;;;;;;;3.33;2.40;;;;;;;2.23;100.00;99682.21;1713076;80;21029;-83
2022/11/19 10:28:15;;;;;;;5.28;3.17;;;;;;;2.28;100.00;99697.13;1723252;80;21242;-83
2022/11/19 10:31:35;;;;;;;5.85;3.45;;;;;;;2.28;100.00;99698.47;1736847;81;21096;-83
2022/11/19 10:34:29;;;;;;;5.15;3.22;;;;;;;2.35;100.00;99709.92;1715054;81;21101;-83
2022/11/19 10:37:15;;;;;;;5.47;2.37;;;;;;;2.41;100.00;99717.02;1740085;80;21448;-83
2022/11/19 10:40:13;;;;;;;6.50;3.65;;;;;;;2.47;100.00;99718.73;1721933;81;21014;-83
2022/11/19 10:43:19;;;;;;;5.15;3.35;;;;;;;2.53;100.00;99738.00;1650699;84;21066;-84
2022/11/19 10:46:05;;;;;;;6.28;3.52;;;;;;;2.58;100.00;99739.43;1669011;83;21130;-83
2022/11/19 10:48:53;;;;;;;4.33;2.67;;;;;;;2.60;100.00;99755.38;1728336;80;21002;-83
2022/11/19 10:51:41;;;;;;;6.58;3.40;;;;;;;2.61;100.00;99764.28;1712168;81;21077;-83
2022/11/19 10:54:26;;;;;;;6.17;3.10;;;;;;;2.59;100.00;99780.70;1721279;81;21045;-83
2022/11/19 10:57:15;;;;;;;10.03;4.67;;;;;;;2.58;100.00;99793.38;1719247;82;21047;-83
2022/11/19 11:00:00;;;;;;;6.95;4.30;;;;;;;2.56;100.00;99801.42;1704885;81;21042;-84
2022/11/19 11:02:50;;;;;;;5.85;3.60;;;;;;;2.55;100.00;99803.84;1736813;80;20986;-83
2022/11/19 11:05:57;;;;;;;7.65;4.00;;;;;;;2.55;100.00;99811.41;1646343;84;21011;-84
2022/11/19 11:08:50;;;;;;;6.95;3.58;;;;;;;2.54;100.00;99820.53;1724123;81;20994;-83
2022/11/19 11:14:52;;;;;;;5.05;2.77;;;;;;;2.53;100.00;99847.77;1663933;83;21105;-83
2022/11/19 11:17:38;;;;;;;5.95;3.80;;;;;;;2.54;100.00;99844.81;1730702;81;21018;-84
2022/11/19 11:20:25;;;;;;;4.47;2.55;;;;;;;2.49;100.00;99854.16;1744170;80;21046;-83
2022/11/19 11:23:17;;;;;;;3.65;2.40;;;;;;;2.46;100.00;99857.34;1680067;82;21006;-83
2022/11/19 11:26:08;;;;;;;3.25;2.10;;;;;;;2.44;100.00;99870.78;1675652;83;21368;-84
2022/11/19 11:29:16;;;;;;;4.83;2.40;;;;;;;2.42;100.00;99879.09;1738220;81;21057;-84
2022/11/19 11:32:00;;;;;;;5.90;2.37;;;;;;;2.44;100.00;99887.77;1688295;83;21444;-83
2022/11/19 11:34:45;;;;;;;2.98;1.87;;;;;;;2.42;100.00;99895.28;1686683;82;21163;-83
2022/11/19 11:37:30;;;;;;;2.98;2.33;;;;;;;2.42;100.00;99914.16;1682079;82;21082;-83
2022/11/19 11:40:20;;;;;;;3.50;2.30;;;;;;;2.39;100.00;99925.42;1727208;81;21008;-83
2022/11/19 11:43:05;;;;;;;3.95;2.47;;;;;;;2.42;100.00;99926.83;1691738;80;21004;-83
2022/11/19 11:45:57;;;;;;;2.15;1.72;;;;;;;2.42;100.00;99951.09;1743684;80;21057;-84
2022/11/19 11:48:46;;;;;;;9.65;5.08;;;;;;;2.44;100.00;99963.81;1743487;80;21421;-83
2022/11/19 11:51:35;;;;;;;31.62;13.68;;;;;;;2.44;100.00;99961.94;1707956;80;21038;-83
2022/11/19 11:54:20;;;;;;;5.10;3.20;;;;;;;2.41;100.00;99973.20;1747524;80;21550;-84
2022/11/19 11:57:18;;;;;;;5.17;3.33;;;;;;;2.44;100.00;99978.11;1727809;82;21010;-82
2022/11/19 12:00:30;;;;;;;2.62;2.08;;;;;;;2.46;100.00;99994.07;1717378;80;21482;-83
2022/11/19 12:03:19;;;;;;;5.10;2.40;;;;;;;2.48;100.00;100009.49;1735834;80;21160;-83
2022/11/19 12:06:14;;;;;;;4.60;2.50;;;;;;;2.49;100.00;100026.77;1729610;80;21096;-83
2022/11/19 12:09:19;;;;;;;5.28;3.08;;;;;;;2.48;100.00;100031.88;1731268;80;21407;-83
2022/11/19 12:12:08;;;;;;;5.67;2.80;;;;;;;2.46;100.00;100040.73;1675063;83;21039;-83
2022/11/19 12:15:09;;;;;;;4.90;2.90;;;;;;;2.43;100.00;100053.34;1728631;80;20966;-83
2022/11/19 12:18:26;;;;;;;4.95;2.40;;;;;;;2.41;100.00;100054.64;1692482;81;21596;-84
2022/11/19 12:21:33;;;;;;;3.77;2.77;;;;;;;2.39;100.00;100050.81;1718169;81;21730;-83
2022/11/19 12:24:57;;;;;;;6.10;3.30;;;;;;;2.36;100.00;100067.47;1734749;81;21197;-84
2022/11/19 12:28:23;;;;;;;4.50;2.05;;;;;;;2.34;100.00;100067.70;1660869;83;21654;-83
2022/11/19 12:31:30;;;;;;;6.92;2.98;;;;;;;2.34;100.00;100072.27;1667622;83;21030;-83
